sensor_id;sensor_type;location;lat;lon;timestamp;pressure;altitude;pressure_sealevel;temperature;humidity
44441;BME280;30146;52.268;20.944;2023-06-22T00:00:21;100346.73;;;21.50;69.85
44441;BME280;30146;52.268;20.944;2023-06-22T00:02:52;100350.52;;;21.48;69.92
44441;BME280;30146;52.268;20.944;2023-06-22T00:05:23;100350.67;;;21.45;69.84
44441;BME280;30146;52.268;20.944;2023-06-22T00:07:54;100352.05;;;21.42;70.02
44441;BME280;30146;52.268;20.944;2023-06-22T00:10:25;100352.21;;;21.39;69.97
44441;BME280;30146;52.268;20.944;2023-06-22T00:12:57;100356.27;;;21.38;70.17
44441;BME280;30146;52.268;20.944;2023-06-22T00:15:28;100360.73;;;21.35;70.22
44441;BME280;30146;52.268;20.944;2023-06-22T00:17:59;100358.29;;;21.32;70.17
44441;BME280;30146;52.268;20.944;2023-06-22T00:20:32;100361.58;;;21.29;70.37
44441;BME280;30146;52.268;20.944;2023-06-22T00:23:05;100355.43;;;21.27;70.45
44441;BME280;30146;52.268;20.944;2023-06-22T00:25:38;100357.62;;;21.26;70.52
44441;BME280;30146;52.268;20.944;2023-06-22T00:28:10;100359.04;;;21.25;70.71
44441;BME280;30146;52.268;20.944;2023-06-22T00:30:41;100356.35;;;21.23;70.59
44441;BME280;30146;52.268;20.944;2023-06-22T00:33:12;100350.91;;;21.21;70.56
44441;BME280;30146;52.268;20.944;2023-06-22T00:35:43;100346.59;;;21.17;70.30
44441;BME280;30146;52.268;20.944;2023-06-22T00:38:15;100349.46;;;21.15;70.52
44441;BME280;30146;52.268;20.944;2023-06-22T00:40:46;100348.68;;;21.14;70.55
44441;BME280;30146;52.268;20.944;2023-06-22T00:43:17;100347.45;;;21.11;70.47
44441;BME280;30146;52.268;20.944;2023-06-22T00:45:48;100350.91;;;21.11;70.77
44441;BME280;30146;52.268;20.944;2023-06-22T00:48:20;100350.36;;;21.12;70.84
44441;BME280;30146;52.268;20.944;2023-06-22T00:50:51;100348.19;;;21.10;70.65
44441;BME280;30146;52.268;20.944;2023-06-22T00:53:23;100352.23;;;21.09;70.72
44441;BME280;30146;52.268;20.944;2023-06-22T00:55:57;100349.05;;;21.07;70.67
44441;BME280;30146;52.268;20.944;2023-06-22T00:58:30;100342.84;;;21.06;70.69
44441;BME280;30146;52.268;20.944;2023-06-22T01:01:02;100342.40;;;21.05;70.71
44441;BME280;30146;52.268;20.944;2023-06-22T01:03:34;100338.64;;;21.03;70.75
44441;BME280;30146;52.268;20.944;2023-06-22T01:06:10;100335.33;;;21.04;70.85
44441;BME280;30146;52.268;20.944;2023-06-22T01:08:49;100335.54;;;21.03;70.97
44441;BME280;30146;52.268;20.944;2023-06-22T01:11:26;100330.71;;;21.02;70.86
44441;BME280;30146;52.268;20.944;2023-06-22T01:14:02;100326.11;;;21.01;70.82
44441;BME280;30146;52.268;20.944;2023-06-22T01:16:37;100323.58;;;20.99;70.95
44441;BME280;30146;52.268;20.944;2023-06-22T01:19:24;100328.64;;;20.99;71.02
44441;BME280;30146;52.268;20.944;2023-06-22T01:21:59;100326.27;;;20.97;71.13
44441;BME280;30146;52.268;20.944;2023-06-22T01:24:45;100325.58;;;20.98;71.35
44441;BME280;30146;52.268;20.944;2023-06-22T01:27:31;100327.07;;;20.99;71.53
44441;BME280;30146;52.268;20.944;2023-06-22T01:30:06;100317.90;;;20.98;71.39
44441;BME280;30146;52.268;20.944;2023-06-22T01:32:40;100312.20;;;20.98;71.53
44441;BME280;30146;52.268;20.944;2023-06-22T01:35:13;100311.45;;;20.98;71.44
44441;BME280;30146;52.268;20.944;2023-06-22T01:37:47;100314.10;;;20.98;71.31
44441;BME280;30146;52.268;20.944;2023-06-22T01:40:21;100316.61;;;20.96;71.36
44441;BME280;30146;52.268;20.944;2023-06-22T01:42:54;100318.56;;;20.95;71.55
44441;BME280;30146;52.268;20.944;2023-06-22T01:45:26;100314.48;;;20.94;71.46
44441;BME280;30146;52.268;20.944;2023-06-22T01:47:59;100313.88;;;20.91;71.31
44441;BME280;30146;52.268;20.944;2023-06-22T01:50:31;100314.44;;;20.91;71.79
44441;BME280;30146;52.268;20.944;2023-06-22T01:53:02;100320.23;;;20.93;71.94
44441;BME280;30146;52.268;20.944;2023-06-22T01:55:36;100321.97;;;20.93;71.94
44441;BME280;30146;52.268;20.944;2023-06-22T01:58:07;100321.18;;;20.92;71.83
44441;BME280;30146;52.268;20.944;2023-06-22T02:00:40;100323.80;;;20.91;71.75
44441;BME280;30146;52.268;20.944;2023-06-22T02:03:17;100333.29;;;20.89;71.77
44441;BME280;30146;52.268;20.944;2023-06-22T02:05:52;100343.47;;;20.87;71.80
44441;BME280;30146;52.268;20.944;2023-06-22T02:08:27;100349.02;;;20.84;71.88
44441;BME280;30146;52.268;20.944;2023-06-22T02:11:02;100357.80;;;20.83;71.95
44441;BME280;30146;52.268;20.944;2023-06-22T02:13:34;100365.11;;;20.82;71.97
44441;BME280;30146;52.268;20.944;2023-06-22T02:16:06;100360.52;;;20.81;72.02
44441;BME280;30146;52.268;20.944;2023-06-22T02:18:37;100360.02;;;20.80;72.08
44441;BME280;30146;52.268;20.944;2023-06-22T02:21:10;100363.73;;;20.79;72.13
44441;BME280;30146;52.268;20.944;2023-06-22T02:23:41;100364.31;;;20.78;72.01
44441;BME280;30146;52.268;20.944;2023-06-22T02:26:12;100362.09;;;20.77;72.15
44441;BME280;30146;52.268;20.944;2023-06-22T02:28:43;100364.37;;;20.76;72.16
44441;BME280;30146;52.268;20.944;2023-06-22T02:31:15;100369.79;;;20.76;72.20
44441;BME280;30146;52.268;20.944;2023-06-22T02:33:48;100380.33;;;20.77;72.36
44441;BME280;30146;52.268;20.944;2023-06-22T02:36:21;100382.70;;;20.78;72.46
44441;BME280;30146;52.268;20.944;2023-06-22T02:38:55;100386.80;;;20.79;72.45
44441;BME280;30146;52.268;20.944;2023-06-22T02:41:28;100391.13;;;20.80;72.56
44441;BME280;30146;52.268;20.944;2023-06-22T02:44:00;100397.33;;;20.81;72.46
44441;BME280;30146;52.268;20.944;2023-06-22T02:46:31;100405.77;;;20.82;72.86
44441;BME280;30146;52.268;20.944;2023-06-22T02:49:02;100407.48;;;20.83;72.73
44441;BME280;30146;52.268;20.944;2023-06-22T02:51:34;100409.74;;;20.82;72.66
44441;BME280;30146;52.268;20.944;2023-06-22T02:54:06;100412.86;;;20.83;72.87
44441;BME280;30146;52.268;20.944;2023-06-22T02:56:37;100413.90;;;20.83;72.88
44441;BME280;30146;52.268;20.944;2023-06-22T02:59:10;100422.65;;;20.85;73.09
44441;BME280;30146;52.268;20.944;2023-06-22T03:01:41;100414.28;;;20.86;73.16
44441;BME280;30146;52.268;20.944;2023-06-22T03:04:22;100411.22;;;20.84;73.01
44441;BME280;30146;52.268;20.944;2023-06-22T03:06:54;100414.45;;;20.86;72.97
44441;BME280;30146;52.268;20.944;2023-06-22T03:09:25;100415.79;;;20.87;73.29
44441;BME280;30146;52.268;20.944;2023-06-22T03:11:58;100427.22;;;20.87;73.31
44441;BME280;30146;52.268;20.944;2023-06-22T03:14:35;100430.52;;;20.87;73.40
44441;BME280;30146;52.268;20.944;2023-06-22T03:17:07;100431.56;;;20.87;73.31
44441;BME280;30146;52.268;20.944;2023-06-22T03:19:38;100432.78;;;20.87;73.35
44441;BME280;30146;52.268;20.944;2023-06-22T03:22:09;100433.81;;;20.88;73.50
44441;BME280;30146;52.268;20.944;2023-06-22T03:24:43;100436.92;;;20.88;73.54
44441;BME280;30146;52.268;20.944;2023-06-22T03:27:14;100434.58;;;20.89;73.62
44441;BME280;30146;52.268;20.944;2023-06-22T03:29:45;100433.50;;;20.90;73.73
44441;BME280;30146;52.268;20.944;2023-06-22T03:32:16;100432.91;;;20.92;73.70
44441;BME280;30146;52.268;20.944;2023-06-22T03:34:47;100434.92;;;20.93;73.72
44441;BME280;30146;52.268;20.944;2023-06-22T03:37:19;100438.48;;;20.95;73.83
44441;BME280;30146;52.268;20.944;2023-06-22T03:39:50;100439.92;;;20.97;73.78
44441;BME280;30146;52.268;20.944;2023-06-22T03:42:22;100441.57;;;20.99;73.72
44441;BME280;30146;52.268;20.944;2023-06-22T03:44:53;100447.06;;;21.00;73.88
44441;BME280;30146;52.268;20.944;2023-06-22T03:47:24;100453.02;;;21.03;73.74
44441;BME280;30146;52.268;20.944;2023-06-22T03:49:56;100454.33;;;21.05;73.79
44441;BME280;30146;52.268;20.944;2023-06-22T03:52:27;100458.22;;;21.07;73.94
44441;BME280;30146;52.268;20.944;2023-06-22T03:54:58;100458.75;;;21.10;73.96
44441;BME280;30146;52.268;20.944;2023-06-22T03:57:30;100459.40;;;21.10;73.86
44441;BME280;30146;52.268;20.944;2023-06-22T04:00:01;100465.52;;;21.13;73.98
44441;BME280;30146;52.268;20.944;2023-06-22T04:02:40;100465.30;;;21.18;73.96
44441;BME280;30146;52.268;20.944;2023-06-22T04:05:11;100460.41;;;21.21;74.04
44441;BME280;30146;52.268;20.944;2023-06-22T04:07:43;100460.16;;;21.26;73.99
44441;BME280;30146;52.268;20.944;2023-06-22T04:10:14;100460.30;;;21.34;74.15
44441;BME280;30146;52.268;20.944;2023-06-22T04:12:47;100459.64;;;21.46;74.34
44441;BME280;30146;52.268;20.944;2023-06-22T04:15:18;100462.94;;;21.60;74.55
44441;BME280;30146;52.268;20.944;2023-06-22T04:17:50;100464.73;;;21.75;74.35
44441;BME280;30146;52.268;20.944;2023-06-22T04:20:21;100466.23;;;21.92;74.13
44441;BME280;30146;52.268;20.944;2023-06-22T04:22:58;100465.25;;;22.10;74.06
44441;BME280;30146;52.268;20.944;2023-06-22T04:25:34;100470.77;;;22.27;73.80
44441;BME280;30146;52.268;20.944;2023-06-22T04:28:06;100474.70;;;22.47;73.75
44441;BME280;30146;52.268;20.944;2023-06-22T04:30:42;100481.66;;;22.62;73.38
44441;BME280;30146;52.268;20.944;2023-06-22T04:33:17;100485.16;;;22.71;72.98
44441;BME280;30146;52.268;20.944;2023-06-22T04:35:49;100484.80;;;22.78;72.62
44441;BME280;30146;52.268;20.944;2023-06-22T04:38:21;100481.42;;;22.82;72.24
44441;BME280;30146;52.268;20.944;2023-06-22T04:40:55;100481.82;;;22.84;72.00
44441;BME280;30146;52.268;20.944;2023-06-22T04:43:53;100482.35;;;22.87;71.92
44441;BME280;30146;52.268;20.944;2023-06-22T04:46:30;100476.27;;;22.90;71.69
44441;BME280;30146;52.268;20.944;2023-06-22T04:49:01;100475.43;;;22.92;71.59
44441;BME280;30146;52.268;20.944;2023-06-22T04:51:37;100478.88;;;22.93;71.34
44441;BME280;30146;52.268;20.944;2023-06-22T04:54:08;100479.31;;;22.91;71.24
44441;BME280;30146;52.268;20.944;2023-06-22T04:56:40;100479.52;;;22.91;71.17
44441;BME280;30146;52.268;20.944;2023-06-22T04:59:11;100481.83;;;22.90;71.08
44441;BME280;30146;52.268;20.944;2023-06-22T05:01:42;100481.00;;;22.89;71.12
44441;BME280;30146;52.268;20.944;2023-06-22T05:04:16;100480.51;;;22.88;71.08
44441;BME280;30146;52.268;20.944;2023-06-22T05:06:48;100479.17;;;22.87;70.88
44441;BME280;30146;52.268;20.944;2023-06-22T05:09:19;100478.88;;;22.86;70.96
44441;BME280;30146;52.268;20.944;2023-06-22T05:11:51;100474.27;;;22.85;70.96
44441;BME280;30146;52.268;20.944;2023-06-22T05:14:22;100479.17;;;22.84;70.75
44441;BME280;30146;52.268;20.944;2023-06-22T05:16:53;100479.09;;;22.83;70.77
44441;BME280;30146;52.268;20.944;2023-06-22T05:19:28;100476.65;;;22.83;70.82
44441;BME280;30146;52.268;20.944;2023-06-22T05:22:04;100479.80;;;22.83;70.72
44441;BME280;30146;52.268;20.944;2023-06-22T05:24:36;100482.38;;;22.83;70.81
44441;BME280;30146;52.268;20.944;2023-06-22T05:27:08;100480.58;;;22.84;70.88
44441;BME280;30146;52.268;20.944;2023-06-22T05:29:39;100484.39;;;22.88;71.01
44441;BME280;30146;52.268;20.944;2023-06-22T05:32:11;100485.54;;;22.92;70.88
44441;BME280;30146;52.268;20.944;2023-06-22T05:34:42;100489.67;;;22.96;70.92
44441;BME280;30146;52.268;20.944;2023-06-22T05:37:13;100492.86;;;22.98;70.83
44441;BME280;30146;52.268;20.944;2023-06-22T05:39:44;100500.12;;;23.02;70.79
44441;BME280;30146;52.268;20.944;2023-06-22T05:42:16;100502.29;;;23.04;70.70
44441;BME280;30146;52.268;20.944;2023-06-22T05:44:47;100502.55;;;23.05;70.64
44441;BME280;30146;52.268;20.944;2023-06-22T05:47:22;100509.00;;;23.09;70.55
44441;BME280;30146;52.268;20.944;2023-06-22T05:49:54;100514.13;;;23.11;70.46
44441;BME280;30146;52.268;20.944;2023-06-22T05:52:25;100518.15;;;23.13;70.34
44441;BME280;30146;52.268;20.944;2023-06-22T05:54:56;100516.60;;;23.15;70.23
44441;BME280;30146;52.268;20.944;2023-06-22T05:57:27;100514.27;;;23.17;70.12
44441;BME280;30146;52.268;20.944;2023-06-22T06:00:03;100509.36;;;23.17;70.01
44441;BME280;30146;52.268;20.944;2023-06-22T06:02:37;100507.27;;;23.17;69.68
44441;BME280;30146;52.268;20.944;2023-06-22T06:05:14;100501.90;;;23.16;69.83
44441;BME280;30146;52.268;20.944;2023-06-22T06:07:47;100509.60;;;23.19;69.92
44441;BME280;30146;52.268;20.944;2023-06-22T06:10:20;100521.30;;;23.21;69.93
44441;BME280;30146;52.268;20.944;2023-06-22T06:12:51;100528.96;;;23.25;69.99
44441;BME280;30146;52.268;20.944;2023-06-22T06:15:23;100520.56;;;23.28;69.96
44441;BME280;30146;52.268;20.944;2023-06-22T06:17:54;100528.60;;;23.31;69.81
44441;BME280;30146;52.268;20.944;2023-06-22T06:20:27;100530.13;;;23.34;69.66
44441;BME280;30146;52.268;20.944;2023-06-22T06:22:59;100532.86;;;23.39;69.73
44441;BME280;30146;52.268;20.944;2023-06-22T06:25:30;100530.92;;;23.44;69.68
44441;BME280;30146;52.268;20.944;2023-06-22T06:28:01;100531.92;;;23.51;69.67
44441;BME280;30146;52.268;20.944;2023-06-22T06:30:33;100529.70;;;23.59;69.64
44441;BME280;30146;52.268;20.944;2023-06-22T06:33:04;100529.41;;;23.70;69.69
44441;BME280;30146;52.268;20.944;2023-06-22T06:35:39;100528.59;;;23.80;69.60
44441;BME280;30146;52.268;20.944;2023-06-22T06:38:10;100534.52;;;23.89;69.41
44441;BME280;30146;52.268;20.944;2023-06-22T06:40:41;100533.75;;;23.99;69.28
44441;BME280;30146;52.268;20.944;2023-06-22T06:43:14;100528.42;;;24.14;69.31
44441;BME280;30146;52.268;20.944;2023-06-22T06:45:48;100526.35;;;24.33;69.21
44441;BME280;30146;52.268;20.944;2023-06-22T06:48:21;100528.11;;;24.60;69.70
44441;BME280;30146;52.268;20.944;2023-06-22T06:50:53;100528.61;;;24.79;68.98
44441;BME280;30146;52.268;20.944;2023-06-22T06:53:24;100524.49;;;24.91;68.45
44441;BME280;30146;52.268;20.944;2023-06-22T06:55:56;100525.55;;;25.04;68.41
44441;BME280;30146;52.268;20.944;2023-06-22T06:58:28;100526.30;;;25.27;68.50
44441;BME280;30146;52.268;20.944;2023-06-22T07:01:00;100527.34;;;25.53;68.35
44441;BME280;30146;52.268;20.944;2023-06-22T07:03:31;100523.55;;;25.90;68.72
44441;BME280;30146;52.268;20.944;2023-06-22T07:06:03;100519.11;;;26.33;68.40
44441;BME280;30146;52.268;20.944;2023-06-22T07:08:34;100519.30;;;26.59;67.42
44441;BME280;30146;52.268;20.944;2023-06-22T07:11:06;100519.95;;;26.77;66.73
44441;BME280;30146;52.268;20.944;2023-06-22T07:13:37;100518.74;;;26.97;66.24
44441;BME280;30146;52.268;20.944;2023-06-22T07:16:08;100522.23;;;27.23;65.69
44441;BME280;30146;52.268;20.944;2023-06-22T07:18:42;100526.05;;;27.56;65.65
44441;BME280;30146;52.268;20.944;2023-06-22T07:21:13;100530.89;;;27.93;65.40
44441;BME280;30146;52.268;20.944;2023-06-22T07:23:45;100532.94;;;28.20;64.57
44441;BME280;30146;52.268;20.944;2023-06-22T07:26:16;100530.95;;;28.36;63.89
44441;BME280;30146;52.268;20.944;2023-06-22T07:28:47;100533.08;;;28.45;63.02
44441;BME280;30146;52.268;20.944;2023-06-22T07:31:21;100537.64;;;28.49;62.13
44441;BME280;30146;52.268;20.944;2023-06-22T07:33:56;100540.82;;;28.60;61.91
44441;BME280;30146;52.268;20.944;2023-06-22T07:36:27;100545.59;;;28.79;61.77
44441;BME280;30146;52.268;20.944;2023-06-22T07:39:00;100545.45;;;28.98;61.43
44441;BME280;30146;52.268;20.944;2023-06-22T07:41:32;100545.90;;;29.21;61.25
44441;BME280;30146;52.268;20.944;2023-06-22T07:44:06;100541.16;;;29.44;60.32
44441;BME280;30146;52.268;20.944;2023-06-22T07:46:37;100547.45;;;29.65;59.71
44441;BME280;30146;52.268;20.944;2023-06-22T07:49:09;100545.91;;;29.87;59.20
44441;BME280;30146;52.268;20.944;2023-06-22T07:51:40;100541.77;;;30.10;58.41
44441;BME280;30146;52.268;20.944;2023-06-22T07:54:12;100543.90;;;30.32;58.03
44441;BME280;30146;52.268;20.944;2023-06-22T07:56:45;100545.27;;;30.53;56.95
44441;BME280;30146;52.268;20.944;2023-06-22T07:59:17;100545.08;;;30.70;56.43
44441;BME280;30146;52.268;20.944;2023-06-22T08:01:48;100548.60;;;30.84;55.45
44441;BME280;30146;52.268;20.944;2023-06-22T08:04:19;100541.69;;;30.94;54.63
44441;BME280;30146;52.268;20.944;2023-06-22T08:06:51;100541.00;;;31.07;54.31
44441;BME280;30146;52.268;20.944;2023-06-22T08:09:22;100537.92;;;31.16;54.08
44441;BME280;30146;52.268;20.944;2023-06-22T08:11:53;100540.27;;;31.23;53.85
44441;BME280;30146;52.268;20.944;2023-06-22T08:14:26;100543.38;;;31.33;53.09
44441;BME280;30146;52.268;20.944;2023-06-22T08:16:58;100536.95;;;31.39;52.82
44441;BME280;30146;52.268;20.944;2023-06-22T08:19:30;100539.53;;;31.42;52.28
44441;BME280;30146;52.268;20.944;2023-06-22T08:22:01;100541.05;;;31.48;52.00
44441;BME280;30146;52.268;20.944;2023-06-22T08:24:35;100538.48;;;31.53;51.08
44441;BME280;30146;52.268;20.944;2023-06-22T08:27:09;100535.09;;;31.56;51.11
44441;BME280;30146;52.268;20.944;2023-06-22T08:29:41;100539.66;;;31.63;50.78
44441;BME280;30146;52.268;20.944;2023-06-22T08:32:13;100537.86;;;31.69;50.57
44441;BME280;30146;52.268;20.944;2023-06-22T08:34:48;100540.09;;;31.76;50.03
44441;BME280;30146;52.268;20.944;2023-06-22T08:37:20;100541.41;;;31.78;49.68
44441;BME280;30146;52.268;20.944;2023-06-22T08:40:02;100539.54;;;31.79;49.22
44441;BME280;30146;52.268;20.944;2023-06-22T08:42:35;100537.46;;;31.80;48.90
44441;BME280;30146;52.268;20.944;2023-06-22T08:45:10;100539.02;;;31.85;48.95
44441;BME280;30146;52.268;20.944;2023-06-22T08:47:42;100547.88;;;31.90;48.83
44441;BME280;30146;52.268;20.944;2023-06-22T08:50:14;100542.13;;;31.91;48.35
44441;BME280;30146;52.268;20.944;2023-06-22T08:52:45;100547.03;;;31.92;48.23
44441;BME280;30146;52.268;20.944;2023-06-22T08:55:18;100551.41;;;31.94;47.81
44441;BME280;30146;52.268;20.944;2023-06-22T08:57:51;100550.39;;;31.95;47.23
44441;BME280;30146;52.268;20.944;2023-06-22T09:00:22;100555.48;;;31.97;46.97
44441;BME280;30146;52.268;20.944;2023-06-22T09:02:54;100557.02;;;31.92;46.32
44441;BME280;30146;52.268;20.944;2023-06-22T09:05:29;100560.54;;;31.85;45.78
44441;BME280;30146;52.268;20.944;2023-06-22T09:08:03;100557.61;;;31.79;45.62
44441;BME280;30146;52.268;20.944;2023-06-22T09:10:34;100562.66;;;31.74;45.38
44441;BME280;30146;52.268;20.944;2023-06-22T09:13:06;100563.72;;;31.71;45.53
44441;BME280;30146;52.268;20.944;2023-06-22T09:15:37;100560.60;;;31.68;45.73
44441;BME280;30146;52.268;20.944;2023-06-22T09:18:11;100553.05;;;31.68;45.42
44441;BME280;30146;52.268;20.944;2023-06-22T09:20:44;100554.67;;;31.65;45.18
44441;BME280;30146;52.268;20.944;2023-06-22T09:23:15;100552.12;;;31.62;44.86
44441;BME280;30146;52.268;20.944;2023-06-22T09:25:47;100546.42;;;31.63;44.24
44441;BME280;30146;52.268;20.944;2023-06-22T09:28:18;100543.80;;;31.60;44.32
44441;BME280;30146;52.268;20.944;2023-06-22T09:30:49;100538.54;;;31.60;44.47
44441;BME280;30146;52.268;20.944;2023-06-22T09:33:26;100538.93;;;31.60;43.82
44441;BME280;30146;52.268;20.944;2023-06-22T09:36:05;100537.27;;;31.58;43.69
44441;BME280;30146;52.268;20.944;2023-06-22T09:38:37;100538.70;;;31.57;43.72
44441;BME280;30146;52.268;20.944;2023-06-22T09:41:08;100538.83;;;31.57;43.48
44441;BME280;30146;52.268;20.944;2023-06-22T09:43:39;100536.80;;;31.58;43.45
44441;BME280;30146;52.268;20.944;2023-06-22T09:46:11;100536.23;;;31.58;43.24
44441;BME280;30146;52.268;20.944;2023-06-22T09:48:42;100536.74;;;31.57;42.92
44441;BME280;30146;52.268;20.944;2023-06-22T09:51:14;100531.67;;;31.56;42.74
44441;BME280;30146;52.268;20.944;2023-06-22T09:57:01;100525.11;;;31.62;43.32
44441;BME280;30146;52.268;20.944;2023-06-22T09:59:32;100527.63;;;31.67;42.86
44441;BME280;30146;52.268;20.944;2023-06-22T10:02:04;100534.36;;;31.69;42.59
44441;BME280;30146;52.268;20.944;2023-06-22T10:04:35;100532.52;;;31.70;42.57
44441;BME280;30146;52.268;20.944;2023-06-22T10:07:07;100526.63;;;31.70;42.49
44441;BME280;30146;52.268;20.944;2023-06-22T10:09:38;100526.69;;;31.72;42.57
44441;BME280;30146;52.268;20.944;2023-06-22T10:12:10;100531.61;;;31.74;42.42
44441;BME280;30146;52.268;20.944;2023-06-22T10:14:41;100528.98;;;31.73;42.11
44441;BME280;30146;52.268;20.944;2023-06-22T10:17:13;100536.41;;;31.73;42.29
44441;BME280;30146;52.268;20.944;2023-06-22T10:19:44;100538.41;;;31.72;42.06
44441;BME280;30146;52.268;20.944;2023-06-22T10:22:15;100536.73;;;31.66;41.85
44441;BME280;30146;52.268;20.944;2023-06-22T10:24:47;100537.42;;;31.62;42.17
44441;BME280;30146;52.268;20.944;2023-06-22T10:27:18;100548.66;;;31.61;41.69
44441;BME280;30146;52.268;20.944;2023-06-22T10:29:49;100547.12;;;31.57;41.42
44441;BME280;30146;52.268;20.944;2023-06-22T10:32:23;100536.34;;;31.54;41.43
44441;BME280;30146;52.268;20.944;2023-06-22T10:34:57;100530.38;;;31.49;41.22
44441;BME280;30146;52.268;20.944;2023-06-22T10:37:28;100525.58;;;31.44;40.98
44441;BME280;30146;52.268;20.944;2023-06-22T10:39:59;100526.36;;;31.37;40.88
44441;BME280;30146;52.268;20.944;2023-06-22T10:42:30;100522.21;;;31.34;41.06
44441;BME280;30146;52.268;20.944;2023-06-22T10:45:02;100526.95;;;31.35;41.19
44441;BME280;30146;52.268;20.944;2023-06-22T10:47:33;100521.84;;;31.37;41.13
44441;BME280;30146;52.268;20.944;2023-06-22T10:50:06;100517.38;;;31.37;41.13
44441;BME280;30146;52.268;20.944;2023-06-22T10:52:37;100516.56;;;31.36;41.45
44441;BME280;30146;52.268;20.944;2023-06-22T10:55:09;100515.75;;;31.34;41.31
44441;BME280;30146;52.268;20.944;2023-06-22T10:57:41;100516.29;;;31.32;41.09
44441;BME280;30146;52.268;20.944;2023-06-22T11:00:16;100510.80;;;31.30;41.11
44441;BME280;30146;52.268;20.944;2023-06-22T11:02:48;100513.16;;;31.29;40.75
44441;BME280;30146;52.268;20.944;2023-06-22T11:05:19;100510.00;;;31.27;40.84
44441;BME280;30146;52.268;20.944;2023-06-22T11:07:50;100504.41;;;31.25;41.33
44441;BME280;30146;52.268;20.944;2023-06-22T11:10:22;100499.06;;;31.23;41.17
44441;BME280;30146;52.268;20.944;2023-06-22T11:12:53;100501.52;;;31.22;41.17
44441;BME280;30146;52.268;20.944;2023-06-22T11:15:25;100508.08;;;31.18;40.96
44441;BME280;30146;52.268;20.944;2023-06-22T11:17:56;100511.18;;;31.15;40.75
44441;BME280;30146;52.268;20.944;2023-06-22T11:20:27;100502.29;;;31.14;40.98
44441;BME280;30146;52.268;20.944;2023-06-22T11:22:59;100500.25;;;31.11;40.84
44441;BME280;30146;52.268;20.944;2023-06-22T11:25:30;100495.98;;;31.02;40.79
44441;BME280;30146;52.268;20.944;2023-06-22T11:28:02;100499.41;;;30.91;40.32
44441;BME280;30146;52.268;20.944;2023-06-22T11:30:33;100498.63;;;30.86;40.61
44441;BME280;30146;52.268;20.944;2023-06-22T11:33:05;100496.92;;;30.83;40.85
44441;BME280;30146;52.268;20.944;2023-06-22T11:35:36;100498.86;;;30.82;41.13
44441;BME280;30146;52.268;20.944;2023-06-22T11:38:07;100499.23;;;30.78;40.68
44441;BME280;30146;52.268;20.944;2023-06-22T11:40:38;100500.60;;;30.70;40.49
44441;BME280;30146;52.268;20.944;2023-06-22T11:43:09;100503.56;;;30.63;40.44
44441;BME280;30146;52.268;20.944;2023-06-22T11:45:40;100502.05;;;30.59;40.52
44441;BME280;30146;52.268;20.944;2023-06-22T11:48:12;100500.31;;;30.57;40.66
44441;BME280;30146;52.268;20.944;2023-06-22T11:50:43;100497.21;;;30.54;40.35
44441;BME280;30146;52.268;20.944;2023-06-22T11:53:14;100499.85;;;30.50;40.44
44441;BME280;30146;52.268;20.944;2023-06-22T11:55:46;100500.55;;;30.48;40.65
44441;BME280;30146;52.268;20.944;2023-06-22T11:58:19;100496.34;;;30.46;40.92
44441;BME280;30146;52.268;20.944;2023-06-22T12:00:50;100499.56;;;30.43;40.62
44441;BME280;30146;52.268;20.944;2023-06-22T12:03:22;100498.26;;;30.38;40.50
44441;BME280;30146;52.268;20.944;2023-06-22T12:05:54;100498.76;;;30.32;40.62
44441;BME280;30146;52.268;20.944;2023-06-22T12:08:25;100493.09;;;30.31;40.75
44441;BME280;30146;52.268;20.944;2023-06-22T12:10:56;100496.87;;;30.28;40.45
44441;BME280;30146;52.268;20.944;2023-06-22T12:13:27;100492.77;;;30.26;40.51
44441;BME280;30146;52.268;20.944;2023-06-22T12:15:59;100492.19;;;30.25;40.61
44441;BME280;30146;52.268;20.944;2023-06-22T12:18:30;100493.32;;;30.24;40.14
44441;BME280;30146;52.268;20.944;2023-06-22T12:21:01;100487.39;;;30.23;40.24
44441;BME280;30146;52.268;20.944;2023-06-22T12:23:32;100486.60;;;30.22;40.18
44441;BME280;30146;52.268;20.944;2023-06-22T12:26:03;100481.11;;;30.21;40.10
44441;BME280;30146;52.268;20.944;2023-06-22T12:28:34;100478.59;;;30.19;40.15
44441;BME280;30146;52.268;20.944;2023-06-22T12:31:05;100479.45;;;30.15;40.26
44441;BME280;30146;52.268;20.944;2023-06-22T12:33:36;100479.73;;;30.14;40.21
44441;BME280;30146;52.268;20.944;2023-06-22T12:36:08;100478.23;;;30.11;39.91
44441;BME280;30146;52.268;20.944;2023-06-22T12:38:40;100478.78;;;30.07;40.04
44441;BME280;30146;52.268;20.944;2023-06-22T12:41:11;100476.99;;;30.03;40.05
44441;BME280;30146;52.268;20.944;2023-06-22T12:43:43;100471.87;;;30.00;39.96
44441;BME280;30146;52.268;20.944;2023-06-22T12:46:14;100478.41;;;29.98;40.10
44441;BME280;30146;52.268;20.944;2023-06-22T12:48:45;100473.23;;;29.94;39.84
44441;BME280;30146;52.268;20.944;2023-06-22T12:51:23;100478.36;;;29.92;39.89
44441;BME280;30146;52.268;20.944;2023-06-22T12:53:54;100480.17;;;29.89;39.81
44441;BME280;30146;52.268;20.944;2023-06-22T12:56:26;100477.30;;;29.86;39.85
44441;BME280;30146;52.268;20.944;2023-06-22T12:58:57;100477.80;;;29.81;39.86
44441;BME280;30146;52.268;20.944;2023-06-22T13:01:31;100487.69;;;29.76;39.67
44441;BME280;30146;52.268;20.944;2023-06-22T13:04:02;100483.18;;;29.73;39.86
44441;BME280;30146;52.268;20.944;2023-06-22T13:06:34;100478.52;;;29.72;39.94
44441;BME280;30146;52.268;20.944;2023-06-22T13:09:05;100479.43;;;29.69;40.13